Time;durP1;ratioP1;P1;durP2;ratioP2;P2;SDS_P1;SDS_P2;PMS_P1;PMS_P2;Temp;Humidity;BMP_temperature;BMP_pressure;BME280_temperature;BME280_humidity;BME280_pressure;Samples;Min_cycle;Max_cycle;Signal;HPM_P1;HPM_P2
2024/04/07 00:00:49;;;;;;;5.75;1.27;;;;;;;19.09;39.65;98770.53;5091971;28;20078;-45
2024/04/07 00:03:17;;;;;;;6.47;1.13;;;;;;;19.02;40.08;98776.06;5093192;28;20115;-45
2024/04/07 00:05:44;;;;;;;5.55;1.30;;;;;;;19.06;40.15;98785.16;5093108;28;20373;-45
2024/04/07 00:08:10;;;;;;;5.82;1.20;;;;;;;19.22;40.08;98761.34;5093087;28;20069;-45
2024/04/07 00:10:36;;;;;;;4.60;1.35;;;;;;;19.21;39.72;98781.00;5093122;28;20024;-45
2024/04/07 00:13:04;;;;;;;4.78;1.58;;;;;;;19.17;39.80;98754.09;5092959;28;20106;-45
2024/04/07 00:15:30;;;;;;;5.95;1.65;;;;;;;19.15;40.34;98777.50;5092919;28;20073;-45
2024/04/07 00:17:55;;;;;;;8.55;1.55;;;;;;;19.22;40.11;98775.44;5092622;28;20051;-46
2024/04/07 00:20:21;;;;;;;8.20;1.38;;;;;;;19.29;40.15;98785.84;5092911;28;20066;-45
2024/04/07 00:22:47;;;;;;;3.30;1.10;;;;;;;19.34;39.95;98780.56;5092896;28;20509;-45
2024/04/07 00:25:12;;;;;;;8.30;2.75;;;;;;;19.30;39.98;98787.47;5092782;28;20439;-45
2024/04/07 00:27:38;;;;;;;4.45;1.55;;;;;;;19.32;40.27;98780.81;5091728;28;20482;-45
2024/04/07 00:30:04;;;;;;;4.45;1.70;;;;;;;19.31;40.44;98789.84;5092738;28;20016;-45
2024/04/07 00:32:30;;;;;;;4.20;1.00;;;;;;;19.34;40.22;98768.06;5091685;28;20482;-45
2024/04/07 00:34:56;;;;;;;8.23;2.58;;;;;;;19.36;40.28;98781.91;5092872;28;20044;-45
2024/04/07 00:37:22;;;;;;;3.35;1.70;;;;;;;19.38;40.72;98778.19;5092525;28;20027;-45
2024/04/07 00:39:47;;;;;;;4.95;1.38;;;;;;;19.42;40.42;98784.59;5091465;28;20036;-45
2024/04/07 00:42:13;;;;;;;4.93;1.10;;;;;;;19.47;40.71;98782.00;5092463;28;20043;-45
2024/04/07 00:44:39;;;;;;;5.53;1.73;;;;;;;19.50;40.60;98768.97;5091190;28;20110;-45
2024/04/07 00:47:05;;;;;;;2.97;1.63;;;;;;;19.56;40.34;98775.94;5091088;28;20107;-45
2024/04/07 00:49:33;;;;;;;8.13;1.67;;;;;;;19.50;40.36;98770.84;5091350;28;20042;-45
2024/04/07 00:51:59;;;;;;;3.58;1.05;;;;;;;19.42;40.55;98773.94;5092586;28;20020;-45
2024/04/07 00:54:25;;;;;;;6.30;2.25;;;;;;;19.38;40.82;98784.34;5092260;28;20403;-45
2024/04/07 00:56:51;;;;;;;6.32;1.25;;;;;;;19.34;40.90;98789.34;5091236;28;20070;-45
2024/04/07 00:59:17;;;;;;;4.57;1.20;;;;;;;19.41;41.15;98793.66;5090855;28;20439;-45
2024/04/07 01:01:43;;;;;;;8.90;1.20;;;;;;;19.52;41.91;98787.34;5092207;28;20390;-45
2024/04/07 01:04:08;;;;;;;18.08;14.98;;;;;;;19.65;42.32;98772.78;5091631;28;20032;-45
2024/04/07 01:06:35;;;;;;;6.78;4.45;;;;;;;19.65;42.96;98764.78;5090780;28;20032;-45
2024/04/07 01:09:00;;;;;;;15.32;11.05;;;;;;;19.70;42.57;98759.50;5092101;28;20024;-45
2024/04/07 01:11:30;;;;;;;12.98;6.53;;;;;;;19.62;43.45;98774.09;5091999;28;20027;-45
2024/04/07 01:13:56;;;;;;;11.70;7.30;;;;;;;19.66;44.24;98774.38;5092010;28;20498;-45
2024/04/07 01:16:22;;;;;;;9.23;3.15;;;;;;;19.76;42.16;98769.16;5092236;28;20017;-46
2024/04/07 01:18:48;;;;;;;7.72;3.20;;;;;;;19.69;43.01;98782.66;5091617;28;20048;-46
2024/04/07 01:21:14;;;;;;;207.77;171.82;;;;;;;19.80;44.30;98791.56;5090801;28;20172;-45
2024/04/07 01:23:40;;;;;;;33.65;25.63;;;;;;;19.95;42.67;98793.47;5091913;28;20527;-45
2024/04/07 01:26:06;;;;;;;54.63;45.88;;;;;;;19.86;43.02;98809.16;5090777;28;20028;-45
2024/04/07 01:28:32;;;;;;;41.50;31.17;;;;;;;19.81;43.30;98787.81;5091829;28;20585;-45
2024/04/07 01:30:58;;;;;;;24.02;15.55;;;;;;;19.77;43.81;98785.94;5091799;28;20111;-45
2024/04/07 01:33:23;;;;;;;28.25;19.33;;;;;;;19.84;44.40;98786.50;5091750;28;20028;-45
2024/04/07 01:35:49;;;;;;;17.52;13.48;;;;;;;19.99;42.25;98793.78;5092061;28;20069;-46
2024/04/07 01:38:15;;;;;;;10.63;8.63;;;;;;;19.86;45.17;98763.88;5091674;28;20020;-45
2024/04/07 01:40:41;;;;;;;7.45;3.78;;;;;;;19.87;43.19;98799.31;5091830;28;20024;-45
2024/04/07 01:43:07;;;;;;;2.97;1.98;;;;;;;19.91;41.98;98782.53;5090497;28;20389;-47
2024/04/07 01:45:33;;;;;;;14.07;3.65;;;;;;;19.83;43.19;98779.56;5091827;28;20024;-47
2024/04/07 01:47:59;;;;;;;6.35;3.17;;;;;;;19.83;42.57;98791.03;5090511;28;20073;-47
2024/04/07 01:50:25;;;;;;;9.70;2.42;;;;;;;19.80;43.94;98786.22;5091639;28;20107;-47
2024/04/07 01:52:52;;;;;;;7.60;3.42;;;;;;;19.75;42.68;98781.66;5091612;28;20020;-47
2024/04/07 01:55:18;;;;;;;3.88;1.95;;;;;;;19.81;42.04;98790.47;5073640;28;20051;-47
2024/04/07 01:57:44;;;;;;;5.68;1.75;;;;;;;19.97;42.12;98786.03;5091549;28;20490;-47
2024/04/07 02:00:10;;;;;;;7.90;1.98;;;;;;;20.04;41.44;98797.28;5091585;28;20036;-47
2024/04/07 02:02:37;;;;;;;6.90;1.73;;;;;;;20.00;41.27;98790.03;5090316;28;20486;-47
2024/04/07 02:05:05;;;;;;;6.80;1.42;;;;;;;20.04;41.20;98804.44;5091585;28;20409;-47
2024/04/07 02:07:32;;;;;;;6.22;2.33;;;;;;;20.07;41.07;98798.59;5091551;28;20615;-47
2024/04/07 02:09:59;;;;;;;6.35;2.20;;;;;;;20.10;41.43;98812.22;5091525;28;20074;-46
2024/04/07 02:12:24;;;;;;;4.88;1.42;;;;;;;20.07;41.30;98802.06;5090135;28;20027;-45
2024/04/07 02:14:50;;;;;;;4.38;1.40;;;;;;;20.01;41.27;98805.75;5091497;28;20028;-45
2024/04/07 02:17:16;;;;;;;7.60;1.48;;;;;;;19.98;41.20;98808.97;5093245;28;20024;-45
2024/04/07 02:19:41;;;;;;;8.57;1.85;;;;;;;19.99;41.40;98804.44;5095055;28;20410;-45
2024/04/07 02:22:08;;;;;;;6.97;1.30;;;;;;;20.06;40.87;98808.47;5094146;28;20056;-45
2024/04/07 02:24:34;;;;;;;2.38;1.00;;;;;;;20.07;41.19;98810.06;5093950;28;20020;-45
2024/04/07 02:27:00;;;;;;;6.47;1.35;;;;;;;20.06;40.96;98816.47;5095153;28;20031;-46
2024/04/07 02:29:26;;;;;;;8.23;1.40;;;;;;;20.18;40.94;98812.75;5093732;28;20024;-45
2024/04/07 02:31:52;;;;;;;5.90;1.73;;;;;;;20.31;40.73;98801.63;5095008;28;20078;-45
2024/04/07 02:34:17;;;;;;;8.75;2.03;;;;;;;20.41;40.89;98809.66;5093908;28;20032;-45
2024/04/07 02:36:43;;;;;;;7.63;1.52;;;;;;;20.50;40.28;98817.94;5094938;28;20048;-45
2024/04/07 02:39:09;;;;;;;5.70;1.67;;;;;;;20.45;40.18;98823.28;5094826;28;20099;-46
2024/04/07 02:41:41;;;;;;;5.97;1.73;;;;;;;20.47;40.35;98816.63;5094901;28;20024;-45
2024/04/07 02:44:07;;;;;;;7.38;1.88;;;;;;;20.53;39.44;98814.78;5094740;28;20032;-45
2024/04/07 02:49:17;;;;;;;6.43;1.80;;;;;;;20.69;39.38;98816.44;5095019;28;20581;-45
2024/04/07 02:51:43;;;;;;;8.70;1.20;;;;;;;20.77;39.50;98823.13;5093638;28;20303;-45
2024/04/07 02:54:12;;;;;;;5.20;1.75;;;;;;;20.88;39.21;98815.94;5094567;28;20021;-45
2024/04/07 02:56:38;;;;;;;5.53;1.85;;;;;;;20.88;39.11;98823.94;5094557;28;20402;-45
2024/04/07 02:59:03;;;;;;;6.32;1.52;;;;;;;20.80;38.53;98827.94;5094432;28;20093;-45
2024/04/07 03:01:29;;;;;;;9.98;2.05;;;;;;;20.66;38.75;98819.63;5093190;28;20078;-46
2024/04/07 03:03:55;;;;;;;8.73;1.63;;;;;;;20.47;39.45;98813.16;5094753;28;20153;-45
2024/04/07 03:06:21;;;;;;;5.95;1.48;;;;;;;20.45;39.33;98820.63;5094326;28;20061;-45
2024/04/07 03:08:48;;;;;;;5.10;1.38;;;;;;;20.47;39.15;98813.94;5094377;28;20052;-45
2024/04/07 03:11:13;;;;;;;5.63;1.10;;;;;;;20.39;39.02;98821.66;5094221;28;20030;-45
2024/04/07 03:13:39;;;;;;;9.60;1.60;;;;;;;20.30;39.30;98800.03;5094238;28;20031;-45
2024/04/07 03:16:14;;;;;;;7.13;1.60;;;;;;;20.38;39.34;98807.50;5092902;28;20017;-45
2024/04/07 03:18:40;;;;;;;4.32;1.35;;;;;;;20.44;39.56;98806.47;5093781;28;20047;-45
2024/04/07 03:21:07;;;;;;;6.55;1.05;;;;;;;20.60;38.21;98809.22;5094070;28;20559;-45
2024/04/07 03:23:32;;;;;;;8.02;1.67;;;;;;;20.51;39.02;98812.38;5092790;28;20039;-45
2024/04/07 03:25:58;;;;;;;8.57;1.60;;;;;;;20.50;38.96;98810.78;5092671;28;20493;-45
2024/04/07 03:28:24;;;;;;;8.32;1.63;;;;;;;20.65;38.86;98826.03;5093523;28;20036;-45
2024/04/07 03:30:54;;;;;;;4.72;1.23;;;;;;;20.60;38.36;98814.53;5093859;28;20020;-45
2024/04/07 03:33:20;;;;;;;5.70;1.20;;;;;;;20.42;38.78;98829.13;5092539;28;20456;-46
2024/04/07 03:35:46;;;;;;;6.00;1.20;;;;;;;20.39;38.78;98821.66;5092445;28;20020;-47
2024/04/07 03:38:12;;;;;;;10.38;3.72;;;;;;;20.38;38.48;98822.72;5093692;28;20398;-47
2024/04/07 03:40:39;;;;;;;6.28;1.73;;;;;;;20.34;38.72;98823.25;5093734;28;20082;-47
2024/04/07 03:43:05;;;;;;;7.55;3.78;;;;;;;20.27;38.70;98822.66;5092430;28;20052;-47
2024/04/07 03:45:31;;;;;;;9.25;1.88;;;;;;;20.27;38.90;98821.88;5092315;28;20071;-47
2024/04/07 03:47:56;;;;;;;3.33;1.20;;;;;;;20.35;38.85;98821.38;5093877;28;20081;-47
2024/04/07 03:50:22;;;;;;;4.75;1.52;;;;;;;20.48;38.60;98820.06;5093562;28;20027;-46
2024/04/07 03:52:48;;;;;;;7.28;2.10;;;;;;;20.45;38.51;98820.63;5092161;28;20028;-45
2024/04/07 03:55:13;;;;;;;5.28;1.42;;;;;;;20.54;38.66;98825.19;5093422;28;20055;-45
2024/04/07 03:57:39;;;;;;;5.78;1.38;;;;;;;20.53;38.65;98815.56;5093412;28;20024;-45
2024/04/07 04:00:05;;;;;;;6.95;1.55;;;;;;;20.60;38.33;98826.00;5093225;28;20394;-45
2024/04/07 04:02:31;;;;;;;3.78;1.63;;;;;;;20.55;38.27;98834.78;5093331;28;20058;-45
2024/04/07 04:05:04;;;;;;;2.70;1.70;;;;;;;20.52;38.05;98832.66;5093273;28;20095;-45
2024/04/07 04:07:31;;;;;;;6.88;2.20;;;;;;;20.52;37.75;98829.16;5093303;28;20028;-45
2024/04/07 04:09:58;;;;;;;5.70;1.55;;;;;;;20.45;38.15;98823.28;5091859;28;20505;-45
2024/04/07 04:12:25;;;;;;;5.20;1.33;;;;;;;20.54;38.09;98825.19;5092996;28;20028;-45
2024/04/07 04:14:52;;;;;;;11.02;2.85;;;;;;;20.65;38.09;98835.91;5093055;28;20487;-45
2024/04/07 04:17:18;;;;;;;7.95;1.52;;;;;;;20.76;37.82;98832.19;5092969;28;20486;-45
2024/04/07 04:19:44;;;;;;;8.50;1.40;;;;;;;20.87;37.32;98817.81;5091377;28;20059;-45
2024/04/07 04:22:10;;;;;;;13.35;1.98;;;;;;;20.98;37.13;98826.63;5091537;28;20027;-45
2024/04/07 04:24:35;;;;;;;14.30;2.75;;;;;;;21.11;37.17;98822.66;5092903;28;20020;-45
2024/04/07 04:27:05;;;;;;;5.78;1.85;;;;;;;21.13;37.00;98828.53;5092808;28;20394;-45
2024/04/07 04:29:35;;;;;;;6.57;1.40;;;;;;;21.01;36.96;98828.78;5092846;28;20067;-45
2024/04/07 04:32:01;;;;;;;5.97;1.65;;;;;;;20.87;36.77;98836.50;5092735;28;20024;-46
2024/04/07 04:34:28;;;;;;;7.45;1.85;;;;;;;20.63;37.51;98830.84;5091397;28;20490;-45
2024/04/07 04:36:55;;;;;;;3.72;1.83;;;;;;;20.58;37.90;98829.97;5092562;28;20020;-47
2024/04/07 04:39:22;;;;;;;4.47;1.30;;;;;;;20.49;37.66;98821.69;5091756;28;20089;-47
2024/04/07 04:41:48;;;;;;;3.90;1.45;;;;;;;20.30;38.90;98818.69;5092515;28;20535;-47
2024/04/07 04:44:15;;;;;;;5.95;2.10;;;;;;;20.29;39.76;98825.88;5092486;28;20040;-46
2024/04/07 04:46:41;;;;;;;3.80;1.40;;;;;;;20.15;38.83;98830.09;5092435;28;20020;-47
2024/04/07 04:49:15;;;;;;;6.35;1.40;;;;;;;19.88;38.88;98830.19;5092401;28;20059;-47
2024/04/07 04:51:41;;;;;;;5.18;1.40;;;;;;;19.80;40.46;98830.69;5091380;28;20024;-47
2024/04/07 04:54:06;;;;;;;9.82;1.73;;;;;;;19.95;39.67;98842.22;5091270;28;20035;-47
2024/04/07 04:56:33;;;;;;;8.63;1.88;;;;;;;19.95;40.80;98849.44;5092337;28;20020;-47
2024/04/07 04:58:59;;;;;;;11.80;2.00;;;;;;;19.87;39.26;98856.03;5092110;28;20063;-47
2024/04/07 05:01:25;;;;;;;8.63;1.73;;;;;;;19.74;40.10;98857.28;5092234;28;20059;-47
2024/04/07 05:03:52;;;;;;;7.20;1.58;;;;;;;19.83;40.23;98854.16;5090925;28;20024;-47
2024/04/07 05:06:19;;;;;;;8.75;2.00;;;;;;;19.93;40.32;98855.00;5092146;28;20025;-47
2024/04/07 05:08:45;;;;;;;8.93;1.30;;;;;;;20.01;39.69;98861.72;5092359;28;20403;-47
2024/04/07 05:11:11;;;;;;;6.32;2.47;;;;;;;19.94;40.35;98861.13;5092148;28;20028;-47
2024/04/07 05:13:37;;;;;;;6.32;1.63;;;;;;;20.02;39.96;98858.00;5090786;28;20119;-47
2024/04/07 05:16:03;;;;;;;6.75;2.08;;;;;;;19.84;38.81;98861.06;5092009;28;20173;-47
2024/04/07 05:18:32;;;;;;;7.57;2.15;;;;;;;19.68;39.13;98868.13;5091773;28;20044;-47
2024/04/07 05:21:08;;;;;;;8.93;2.25;;;;;;;19.59;39.35;98869.66;5092037;28;20027;-47
2024/04/07 05:23:36;;;;;;;6.75;2.13;;;;;;;19.59;39.77;98867.78;5090970;28;20173;-47
2024/04/07 05:26:18;;;;;;;6.65;1.80;;;;;;;19.64;39.42;98865.19;5091865;28;20095;-47
2024/04/07 05:28:45;;;;;;;12.98;7.50;;;;;;;19.78;39.85;98867.41;5090940;28;20405;-46
2024/04/07 05:31:12;;;;;;;5.88;1.60;;;;;;;20.22;38.25;98875.97;5090466;28;20487;-45
2024/04/07 05:33:39;;;;;;;10.32;1.88;;;;;;;20.53;38.45;98868.91;5090624;28;20065;-45
2024/04/07 05:36:05;;;;;;;4.82;1.65;;;;;;;20.44;38.43;98870.44;5090764;28;20079;-45
2024/04/07 05:38:34;;;;;;;11.10;1.83;;;;;;;20.22;38.13;98870.63;5090703;28;20028;-45
2024/04/07 05:40:59;;;;;;;14.90;4.90;;;;;;;20.03;39.64;98872.13;5091758;28;20036;-45
2024/04/07 05:43:25;;;;;;;6.35;1.60;;;;;;;20.21;39.43;98873.56;5091686;28;20028;-46
2024/04/07 05:45:52;;;;;;;10.25;2.35;;;;;;;20.27;39.72;98861.84;5090381;28;20394;-46
2024/04/07 05:48:18;;;;;;;13.70;7.50;;;;;;;20.40;39.02;98869.38;5091705;28;20111;-47
2024/04/07 05:50:44;;;;;;;9.93;2.03;;;;;;;20.41;39.04;98870.97;5092676;28;20028;-47
2024/04/07 05:53:10;;;;;;;10.18;4.45;;;;;;;20.58;39.09;98875.31;5095854;28;20099;-47
2024/04/07 05:55:36;;;;;;;9.45;1.40;;;;;;;20.58;38.29;98881.44;5095783;28;20095;-47
2024/04/07 05:58:03;;;;;;;10.25;1.48;;;;;;;20.45;37.86;98890.72;5095863;28;20107;-47
2024/04/07 06:00:31;;;;;;;6.95;1.50;;;;;;;20.32;37.78;98888.53;5094357;28;20032;-46
2024/04/07 06:02:57;;;;;;;8.75;1.50;;;;;;;20.30;38.34;98886.13;5095889;28;20031;-45
2024/04/07 06:05:23;;;;;;;10.20;3.65;;;;;;;20.45;38.42;98887.25;5094247;28;20486;-45
2024/04/07 06:07:51;;;;;;;4.82;1.85;;;;;;;20.61;37.90;98896.16;5095869;28;20494;-45
2024/04/07 06:10:17;;;;;;;9.63;1.67;;;;;;;20.78;37.85;98902.06;5095475;28;20024;-45
2024/04/07 06:12:43;;;;;;;4.45;1.50;;;;;;;20.92;37.41;98881.84;5095728;28;20103;-45
2024/04/07 06:15:09;;;;;;;5.88;1.02;;;;;;;20.91;37.67;98884.78;5095401;28;20057;-45
2024/04/07 06:17:35;;;;;;;5.25;1.60;;;;;;;20.90;37.80;98883.97;5095409;28;20091;-45
2024/04/07 06:20:02;;;;;;;9.77;1.80;;;;;;;21.03;37.67;98881.88;5093542;28;20135;-45
2024/04/07 06:22:27;;;;;;;6.70;1.33;;;;;;;21.10;37.63;98883.22;5095294;28;20375;-45
2024/04/07 06:24:53;;;;;;;6.07;1.83;;;;;;;21.09;37.73;98884.28;5095217;28;20027;-45
2024/04/07 06:27:19;;;;;;;6.93;2.42;;;;;;;21.11;38.24;98884.03;5095183;28;20070;-46
2024/04/07 06:29:45;;;;;;;9.82;2.22;;;;;;;21.19;37.98;98880.84;5095121;28;20031;-46
2024/04/07 06:32:10;;;;;;;9.95;2.15;;;;;;;21.32;37.79;98879.50;5095357;28;20104;-46
2024/04/07 06:34:36;;;;;;;7.30;2.00;;;;;;;21.70;37.07;98883.53;5095113;28;20046;-45
2024/04/07 06:37:02;;;;;;;6.90;1.50;;;;;;;21.99;35.77;98879.50;5093673;28;20107;-46
2024/04/07 06:39:27;;;;;;;13.27;7.22;;;;;;;21.96;35.80;98880.84;5093871;28;20060;-45
2024/04/07 06:41:53;;;;;;;15.13;4.40;;;;;;;21.68;36.33;98892.91;5093894;28;20536;-45
2024/04/07 06:44:19;;;;;;;3.65;1.73;;;;;;;21.38;37.01;98893.66;5093883;28;20043;-46
2024/04/07 06:46:44;;;;;;;9.25;2.15;;;;;;;21.19;37.46;98891.53;5094869;28;20379;-45
2024/04/07 06:49:10;;;;;;;5.57;1.92;;;;;;;21.13;37.73;98887.25;5093739;28;20039;-45
2024/04/07 06:51:36;;;;;;;6.78;1.50;;;;;;;21.29;37.43;98878.19;5094708;28;20082;-45
2024/04/07 06:54:01;;;;;;;11.35;2.17;;;;;;;21.34;37.52;98885.38;5094680;28;20067;-45
2024/04/07 06:56:28;;;;;;;6.93;1.73;;;;;;;21.43;37.99;98888.34;5093311;28;20498;-45
2024/04/07 06:58:53;;;;;;;8.15;1.60;;;;;;;21.85;37.08;98882.75;5094521;28;20077;-45
2024/04/07 07:01:19;;;;;;;9.80;2.03;;;;;;;22.39;35.67;98880.50;5094523;28;20398;-45
2024/04/07 07:03:45;;;;;;;8.85;1.75;;;;;;;22.34;35.43;98884.00;5093555;28;20486;-45
2024/04/07 07:06:14;;;;;;;8.57;1.98;;;;;;;22.23;35.68;98885.06;5094341;28;20032;-45
2024/04/07 07:08:43;;;;;;;8.43;1.77;;;;;;;22.23;35.33;98877.03;5093028;28;20029;-45
2024/04/07 07:11:10;;;;;;;10.25;1.92;;;;;;;22.18;35.50;98883.19;5094302;28;20081;-45
2024/04/07 07:13:41;;;;;;;7.50;1.60;;;;;;;22.31;35.16;98881.84;5094383;28;20503;-45
2024/04/07 07:16:07;;;;;;;7.43;2.15;;;;;;;22.64;35.32;98880.38;5094241;28;20441;-46
2024/04/07 07:18:33;;;;;;;6.90;1.77;;;;;;;23.20;34.38;98881.97;5093939;28;20051;-45
2024/04/07 07:20:58;;;;;;;9.02;3.67;;;;;;;23.45;34.51;98888.22;5092862;28;20441;-45
2024/04/07 07:23:24;;;;;;;10.07;2.65;;;;;;;23.77;33.82;98881.53;5094142;28;20020;-45
2024/04/07 07:25:52;;;;;;;5.90;2.20;;;;;;;24.11;33.25;98876.13;5092723;28;20024;-45
2024/04/07 07:28:17;;;;;;;11.68;5.03;;;;;;;24.28;32.88;98878.34;5092700;28;20028;-45
2024/04/07 07:30:43;;;;;;;7.13;2.78;;;;;;;24.39;32.44;98879.00;5093969;28;20462;-46
2024/04/07 07:33:09;;;;;;;14.63;2.55;;;;;;;24.31;32.66;98878.56;5093974;28;20032;-46
2024/04/07 07:35:37;;;;;;;8.20;3.00;;;;;;;24.54;31.83;98880.75;5093818;28;20032;-45
2024/04/07 07:38:03;;;;;;;10.52;2.67;;;;;;;24.52;31.59;98875.66;5093758;28;20024;-45
2024/04/07 07:40:29;;;;;;;8.50;2.08;;;;;;;24.51;32.12;98890.97;5093784;28;20081;-46
2024/04/07 07:42:56;;;;;;;8.82;2.45;;;;;;;24.66;31.73;98891.88;5092645;28;20039;-46
2024/04/07 07:45:21;;;;;;;6.55;4.40;;;;;;;25.01;30.90;98892.47;5093611;28;20153;-46
2024/04/07 07:47:47;;;;;;;8.60;2.28;;;;;;;25.06;30.69;98900.47;5093616;28;20489;-46
2024/04/07 07:50:13;;;;;;;10.38;3.63;;;;;;;25.18;30.79;98889.28;5093790;28;20059;-45
2024/04/07 07:52:39;;;;;;;6.13;2.45;;;;;;;25.33;30.82;98894.44;5092195;28;20491;-45
2024/04/07 07:55:05;;;;;;;9.30;1.75;;;;;;;25.61;30.00;98889.94;5092219;28;20020;-46
2024/04/07 07:57:31;;;;;;;7.40;3.38;;;;;;;25.97;29.66;98894.75;5093448;28;20070;-46
2024/04/07 07:59:56;;;;;;;6.60;2.95;;;;;;;26.43;28.97;98887.69;5093329;28;20027;-46
2024/04/07 08:02:22;;;;;;;7.30;2.03;;;;;;;26.62;28.71;98892.97;5093373;28;20027;-46
2024/04/07 08:04:48;;;;;;;10.95;2.42;;;;;;;26.81;28.10;98899.03;5093325;28;20089;-46
2024/04/07 08:07:14;;;;;;;9.27;1.70;;;;;;;27.05;27.65;98892.59;5093727;28;20470;-46
2024/04/07 08:09:40;;;;;;;5.63;1.50;;;;;;;27.05;27.89;98892.59;5093233;28;20038;-46
2024/04/07 08:12:06;;;;;;;13.30;2.00;;;;;;;27.21;27.60;98890.34;5093349;28;20028;-46
2024/04/07 08:14:32;;;;;;;20.02;11.93;;;;;;;27.41;27.71;98894.50;5093084;28;20027;-46
2024/04/07 08:16:58;;;;;;;10.55;3.15;;;;;;;27.65;27.12;98894.19;5093248;28;20059;-46
2024/04/07 08:19:23;;;;;;;6.82;2.10;;;;;;;27.84;26.72;98896.66;5092663;28;20074;-46
2024/04/07 08:21:49;;;;;;;6.97;2.10;;;;;;;27.87;26.71;98890.69;5092924;28;20048;-46
2024/04/07 08:24:15;;;;;;;8.07;2.55;;;;;;;27.84;26.72;98896.66;5092995;28;20033;-46
2024/04/07 08:26:40;;;;;;;12.20;2.47;;;;;;;27.74;26.84;98891.53;5092867;28;20051;-46
2024/04/07 08:29:06;;;;;;;5.90;1.90;;;;;;;27.84;26.52;98885.84;5091532;28;20056;-46
2024/04/07 08:31:32;;;;;;;8.15;1.73;;;;;;;27.89;26.60;98888.47;5091449;28;20051;-46
2024/04/07 08:33:57;;;;;;;8.32;2.63;;;;;;;27.93;26.95;98885.91;5091384;28;20032;-46
2024/04/07 08:36:23;;;;;;;4.75;1.67;;;;;;;27.79;26.36;98891.38;5092743;28;20842;-46
2024/04/07 08:38:48;;;;;;;6.40;1.55;;;;;;;27.67;26.17;98884.66;5091539;28;20020;-46
2024/04/07 08:41:14;;;;;;;5.28;1.60;;;;;;;27.71;25.98;98876.75;5092567;28;20028;-45
2024/04/07 08:43:43;;;;;;;6.80;1.63;;;;;;;27.70;26.53;98880.53;5092577;28;20111;-46
2024/04/07 08:46:13;;;;;;;8.27;2.10;;;;;;;27.86;26.78;98886.34;5092511;28;20021;-46
2024/04/07 08:48:42;;;;;;;6.25;1.92;;;;;;;28.00;25.93;98876.28;5091461;28;20398;-46
2024/04/07 08:51:10;;;;;;;11.60;1.70;;;;;;;28.04;26.13;98881.84;5092384;28;20032;-46
2024/04/07 08:53:40;;;;;;;5.75;1.98;;;;;;;28.16;26.19;98882.06;5092708;28;20575;-46
2024/04/07 08:56:11;;;;;;;13.43;1.65;;;;;;;28.17;25.54;98874.75;5091062;28;20506;-46
2024/04/07 08:58:40;;;;;;;11.73;6.15;;;;;;;27.73;26.01;98882.63;5092248;28;20024;-46
2024/04/07 09:01:15;;;;;;;7.05;2.33;;;;;;;27.55;26.16;98880.91;5092253;28;20101;-46
2024/04/07 09:03:42;;;;;;;4.40;2.20;;;;;;;27.34;26.26;98877.94;5092619;28;20085;-46
2024/04/07 09:06:08;;;;;;;6.28;1.98;;;;;;;27.20;26.59;98870.66;5092126;28;20102;-46
2024/04/07 09:08:34;;;;;;;11.10;2.25;;;;;;;27.06;27.20;98864.53;5092237;28;20031;-46
2024/04/07 09:10:59;;;;;;;12.88;8.57;;;;;;;27.04;27.55;98859.47;5091116;28;20477;-46
2024/04/07 09:13:25;;;;;;;8.35;3.78;;;;;;;26.72;28.88;98871.22;5090749;28;20038;-46
2024/04/07 09:15:51;;;;;;;10.98;4.20;;;;;;;26.55;28.57;98873.72;5091016;28;20020;-46
2024/04/07 09:18:20;;;;;;;27.27;24.65;;;;;;;26.58;30.80;98867.75;5091739;28;20417;-46
2024/04/07 09:20:46;;;;;;;13.98;10.48;;;;;;;26.88;29.84;98877.06;5090670;28;20489;-46
2024/04/07 09:23:13;;;;;;;12.70;6.05;;;;;;;26.95;29.63;98864.00;5090648;28;20020;-46
2024/04/07 09:25:39;;;;;;;7.50;3.53;;;;;;;26.87;28.96;98862.81;5090200;28;20024;-46
2024/04/07 09:28:05;;;;;;;69.05;60.63;;;;;;;26.68;29.96;98867.53;5091930;28;20383;-46
2024/04/07 09:30:30;;;;;;;19.85;13.43;;;;;;;26.57;28.56;98874.22;5091892;28;20551;-46
2024/04/07 09:32:56;;;;;;;40.00;35.28;;;;;;;26.53;30.35;98875.94;5090602;28;20016;-46
2024/04/07 09:35:22;;;;;;;32.90;29.33;;;;;;;26.54;30.28;98880.19;5090499;28;20024;-46
2024/04/07 09:37:48;;;;;;;15.43;10.38;;;;;;;26.47;30.44;98872.53;5091818;28;20031;-46
2024/04/07 09:40:13;;;;;;;42.97;35.67;;;;;;;26.56;30.97;98873.44;5091699;28;20051;-46
2024/04/07 09:42:40;;;;;;;11.68;5.10;;;;;;;26.54;29.52;98872.13;5090718;28;20058;-46
2024/04/07 09:45:10;;;;;;;9.63;4.57;;;;;;;26.46;29.71;98866.38;5090443;28;20074;-46
2024/04/07 09:47:38;;;;;;;10.50;3.97;;;;;;;26.56;29.22;98865.34;5091699;28;20027;-46
2024/04/07 09:50:34;;;;;;;7.68;2.50;;;;;;;26.75;28.91;98878.72;5091601;28;20557;-46
2024/04/07 09:53:20;;;;;;;6.30;2.10;;;;;;;26.70;28.08;98873.41;5091703;28;20036;-46
2024/04/07 09:55:50;;;;;;;6.70;1.75;;;;;;;26.77;28.25;98873.03;5091672;28;20024;-46
2024/04/07 09:58:17;;;;;;;8.32;1.98;;;;;;;26.87;28.01;98865.50;5091567;28;20398;-46
2024/04/07 10:00:43;;;;;;;5.57;1.65;;;;;;;27.07;27.44;98860.75;5091481;28;20067;-46
2024/04/07 10:03:11;;;;;;;5.57;1.77;;;;;;;26.96;27.51;98862.88;5091874;28;20443;-46
2024/04/07 10:05:37;;;;;;;7.28;1.75;;;;;;;26.74;27.28;98865.53;5073720;28;20123;-46
2024/04/07 10:08:03;;;;;;;7.50;2.00;;;;;;;26.61;27.99;98851.81;5091529;28;20091;-46
2024/04/07 10:10:29;;;;;;;14.05;4.30;;;;;;;26.72;28.22;98856.97;5091464;28;20517;-46
2024/04/07 10:13:06;;;;;;;9.25;1.83;;;;;;;26.70;27.62;98857.25;5090171;28;20059;-46
2024/04/07 10:15:32;;;;;;;9.20;2.33;;;;;;;26.75;27.97;98845.59;5091519;28;20028;-46
2024/04/07 10:17:58;;;;;;;10.43;2.63;;;;;;;26.77;27.51;98844.19;5090112;28;20028;-47
2024/04/07 10:20:27;;;;;;;10.68;2.50;;;;;;;26.64;27.69;98855.78;5090148;28;20081;-46
2024/04/07 10:22:53;;;;;;;10.57;2.70;;;;;;;26.54;27.64;98853.28;5091429;28;20052;-46
2024/04/07 10:25:20;;;;;;;5.25;1.65;;;;;;;26.40;27.62;98842.53;5091401;28;20016;-46
2024/04/07 10:27:45;;;;;;;6.82;1.90;;;;;;;26.31;27.74;98843.25;5089994;28;20085;-46
2024/04/07 10:30:14;;;;;;;373.58;277.15;;;;;;;26.44;28.31;98830.06;5089972;28;20024;-46
2024/04/07 10:32:40;;;;;;;127.13;62.53;;;;;;;26.55;28.25;98830.66;5090002;28;20128;-45
2024/04/07 10:35:08;;;;;;;45.20;16.38;;;;;;;26.64;27.62;98818.09;5091253;28;20144;-46
2024/04/07 10:37:37;;;;;;;16.13;7.28;;;;;;;26.62;27.69;98821.09;5090539;28;20261;-46
2024/04/07 10:40:08;;;;;;;8.48;3.42;;;;;;;26.65;28.01;98814.31;5094817;28;20028;-46
2024/04/07 10:42:35;;;;;;;8.30;2.50;;;;;;;26.76;27.74;98814.88;5094959;28;20039;-46
2024/04/07 10:45:02;;;;;;;7.13;2.38;;;;;;;26.83;27.61;98810.66;5094798;28;20069;-46
2024/04/07 10:47:28;;;;;;;7.15;2.10;;;;;;;27.02;27.15;98815.06;5094775;28;20035;-46
2024/04/07 10:49:55;;;;;;;7.35;1.80;;;;;;;27.20;27.26;98808.69;5094724;28;20381;-46
2024/04/07 10:52:23;;;;;;;15.00;2.65;;;;;;;27.32;27.04;98805.47;5094951;28;20386;-46
2024/04/07 10:54:49;;;;;;;4.95;1.92;;;;;;;27.38;26.56;98798.06;5094717;28;20027;-46
2024/04/07 10:57:15;;;;;;;11.15;2.30;;;;;;;27.55;26.73;98795.47;5093575;28;20028;-46
2024/04/07 10:59:42;;;;;;;5.57;1.67;;;;;;;27.63;26.46;98789.31;5094508;28;20020;-46
2024/04/07 11:02:09;;;;;;;8.90;1.98;;;;;;;27.53;26.47;98792.28;5093242;28;20447;-46
2024/04/07 11:04:35;;;;;;;4.93;1.63;;;;;;;27.46;26.31;98797.31;5094408;28;20024;-46
2024/04/07 11:07:02;;;;;;;10.80;3.28;;;;;;;27.53;26.74;98776.09;5093150;28;20149;-46
2024/04/07 11:09:28;;;;;;;6.97;2.55;;;;;;;27.63;26.39;98770.44;5094472;28;20185;-46
2024/04/07 11:11:59;;;;;;;8.50;2.10;;;;;;;27.61;26.40;98761.09;5094327;28;20045;-46
2024/04/07 11:14:30;;;;;;;8.00;1.70;;;;;;;27.72;26.05;98764.28;5093058;28;20031;-46
2024/04/07 11:17:00;;;;;;;8.77;1.95;;;;;;;27.81;26.09;98765.09;5094281;28;20089;-45
2024/04/07 11:19:26;;;;;;;13.05;2.00;;;;;;;28.01;26.07;98753.78;5093945;28;20044;-46
2024/04/07 11:21:52;;;;;;;7.07;1.10;;;;;;;28.00;25.17;98746.00;5094175;28;20073;-46
2024/04/07 11:24:19;;;;;;;6.55;1.25;;;;;;;27.87;25.41;98745.03;5094182;28;20479;-46
2024/04/07 11:26:48;;;;;;;5.55;1.42;;;;;;;27.75;25.67;98748.28;5092745;28;20024;-46
2024/04/07 11:29:16;;;;;;;6.38;1.80;;;;;;;27.68;25.97;98737.94;5094026;28;20032;-46
2024/04/07 11:31:50;;;;;;;9.88;2.40;;;;;;;27.89;25.68;98734.72;5094012;28;20052;-46